sensor_id;sensor_type;location;lat;lon;timestamp;pressure;altitude;pressure_sealevel;temperature;humidity
54600;BME280;40500;51.084;16.958;2023-05-09T00:02:27;101408.42;;;6.54;100.00
54600;BME280;40500;51.084;16.958;2023-05-09T00:04:57;101403.88;;;6.52;100.00
54600;BME280;40500;51.084;16.958;2023-05-09T00:07:28;101400.69;;;6.49;100.00
54600;BME280;40500;51.084;16.958;2023-05-09T00:09:59;101398.73;;;6.47;100.00
54600;BME280;40500;51.084;16.958;2023-05-09T00:12:30;101398.86;;;6.44;100.00
54600;BME280;40500;51.084;16.958;2023-05-09T00:15:00;101398.80;;;6.42;100.00
54600;BME280;40500;51.084;16.958;2023-05-09T00:17:31;101394.07;;;6.39;100.00
54600;BME280;40500;51.084;16.958;2023-05-09T00:20:02;101394.36;;;6.36;100.00
54600;BME280;40500;51.084;16.958;2023-05-09T00:22:33;101396.59;;;6.33;100.00
54600;BME280;40500;51.084;16.958;2023-05-09T00:25:04;101392.35;;;6.30;100.00
54600;BME280;40500;51.084;16.958;2023-05-09T00:27:35;101389.88;;;6.27;100.00
54600;BME280;40500;51.084;16.958;2023-05-09T00:30:08;101390.39;;;6.26;100.00
54600;BME280;40500;51.084;16.958;2023-05-09T00:32:38;101385.47;;;6.25;100.00
54600;BME280;40500;51.084;16.958;2023-05-09T00:35:10;101383.33;;;6.21;100.00
54600;BME280;40500;51.084;16.958;2023-05-09T00:37:41;101379.46;;;6.19;100.00
54600;BME280;40500;51.084;16.958;2023-05-09T00:40:13;101380.45;;;6.16;100.00
54600;BME280;40500;51.084;16.958;2023-05-09T00:42:43;101379.03;;;6.14;100.00
54600;BME280;40500;51.084;16.958;2023-05-09T00:45:14;101372.38;;;6.11;100.00
54600;BME280;40500;51.084;16.958;2023-05-09T00:47:44;101375.65;;;6.10;100.00
54600;BME280;40500;51.084;16.958;2023-05-09T00:50:15;101373.16;;;6.07;100.00
54600;BME280;40500;51.084;16.958;2023-05-09T00:52:46;101370.67;;;6.04;100.00
54600;BME280;40500;51.084;16.958;2023-05-09T00:55:17;101369.58;;;6.01;100.00
54600;BME280;40500;51.084;16.958;2023-05-09T00:57:49;101374.08;;;6.00;100.00
54600;BME280;40500;51.084;16.958;2023-05-09T01:00:19;101380.30;;;5.97;100.00
54600;BME280;40500;51.084;16.958;2023-05-09T01:02:52;101379.20;;;5.95;100.00
54600;BME280;40500;51.084;16.958;2023-05-09T01:05:26;101377.92;;;5.93;100.00
54600;BME280;40500;51.084;16.958;2023-05-09T01:08:05;101372.80;;;5.89;100.00
54600;BME280;40500;51.084;16.958;2023-05-09T01:10:43;101371.87;;;5.85;100.00
54600;BME280;40500;51.084;16.958;2023-05-09T01:13:25;101365.73;;;5.83;100.00
54600;BME280;40500;51.084;16.958;2023-05-09T01:16:00;101361.70;;;5.81;100.00
54600;BME280;40500;51.084;16.958;2023-05-09T01:18:39;101361.12;;;5.78;100.00
54600;BME280;40500;51.084;16.958;2023-05-09T01:21:14;101360.73;;;5.76;100.00
54600;BME280;40500;51.084;16.958;2023-05-09T01:23:58;101358.27;;;5.75;100.00
54600;BME280;40500;51.084;16.958;2023-05-09T01:26:44;101353.35;;;5.72;100.00
54600;BME280;40500;51.084;16.958;2023-05-09T01:29:30;101352.61;;;5.69;100.00
54600;BME280;40500;51.084;16.958;2023-05-09T01:32:06;101347.52;;;5.66;100.00
54600;BME280;40500;51.084;16.958;2023-05-09T01:34:38;101343.10;;;5.63;100.00
54600;BME280;40500;51.084;16.958;2023-05-09T01:37:11;101348.98;;;5.61;100.00
54600;BME280;40500;51.084;16.958;2023-05-09T01:39:45;101350.66;;;5.59;100.00
54600;BME280;40500;51.084;16.958;2023-05-09T01:42:19;101348.85;;;5.55;100.00
54600;BME280;40500;51.084;16.958;2023-05-09T01:44:51;101354.73;;;5.53;100.00
54600;BME280;40500;51.084;16.958;2023-05-09T01:47:23;101351.23;;;5.52;100.00
54600;BME280;40500;51.084;16.958;2023-05-09T01:49:55;101348.44;;;5.51;100.00
54600;BME280;40500;51.084;16.958;2023-05-09T01:52:26;101340.91;;;5.48;100.00
54600;BME280;40500;51.084;16.958;2023-05-09T01:54:58;101344.99;;;5.45;100.00
54600;BME280;40500;51.084;16.958;2023-05-09T01:57:31;101348.96;;;5.43;100.00
54600;BME280;40500;51.084;16.958;2023-05-09T02:00:02;101347.54;;;5.41;100.00
54600;BME280;40500;51.084;16.958;2023-05-09T02:02:41;101343.65;;;5.38;100.00
54600;BME280;40500;51.084;16.958;2023-05-09T02:05:13;101346.33;;;5.34;100.00
54600;BME280;40500;51.084;16.958;2023-05-09T02:07:46;101341.73;;;5.28;100.00
54600;BME280;40500;51.084;16.958;2023-05-09T02:10:17;101343.59;;;5.26;100.00
54600;BME280;40500;51.084;16.958;2023-05-09T02:12:48;101346.16;;;5.25;100.00
54600;BME280;40500;51.084;16.958;2023-05-09T02:15:19;101350.27;;;5.22;100.00
54600;BME280;40500;51.084;16.958;2023-05-09T02:17:50;101349.67;;;5.18;100.00
54600;BME280;40500;51.084;16.958;2023-05-09T02:20:21;101345.64;;;5.16;100.00
54600;BME280;40500;51.084;16.958;2023-05-09T02:22:51;101346.81;;;5.15;100.00
54600;BME280;40500;51.084;16.958;2023-05-09T02:25:22;101336.84;;;5.11;100.00
54600;BME280;40500;51.084;16.958;2023-05-09T02:27:54;101338.17;;;5.09;100.00
54600;BME280;40500;51.084;16.958;2023-05-09T02:30:27;101336.57;;;5.06;100.00
54600;BME280;40500;51.084;16.958;2023-05-09T02:33:02;101337.73;;;5.04;100.00
54600;BME280;40500;51.084;16.958;2023-05-09T02:35:34;101338.89;;;5.02;100.00
54600;BME280;40500;51.084;16.958;2023-05-09T02:38:06;101334.70;;;5.01;100.00
54600;BME280;40500;51.084;16.958;2023-05-09T02:40:37;101331.02;;;4.98;100.00
54600;BME280;40500;51.084;16.958;2023-05-09T02:43:08;101330.04;;;4.93;100.00
54600;BME280;40500;51.084;16.958;2023-05-09T02:45:38;101328.05;;;4.90;100.00
54600;BME280;40500;51.084;16.958;2023-05-09T02:48:09;101329.35;;;4.86;100.00
54600;BME280;40500;51.084;16.958;2023-05-09T02:50:40;101329.11;;;4.83;100.00
54600;BME280;40500;51.084;16.958;2023-05-09T02:53:11;101327.31;;;4.81;100.00
54600;BME280;40500;51.084;16.958;2023-05-09T02:55:42;101325.88;;;4.78;100.00
54600;BME280;40500;51.084;16.958;2023-05-09T02:58:13;101326.18;;;4.76;100.00
54600;BME280;40500;51.084;16.958;2023-05-09T03:00:44;101326.63;;;4.73;100.00
54600;BME280;40500;51.084;16.958;2023-05-09T03:03:15;101324.64;;;4.70;100.00
54600;BME280;40500;51.084;16.958;2023-05-09T03:05:47;101319.37;;;4.67;100.00
54600;BME280;40500;51.084;16.958;2023-05-09T03:08:17;101320.70;;;4.64;100.00
54600;BME280;40500;51.084;16.958;2023-05-09T03:10:48;101319.29;;;4.63;100.00
54600;BME280;40500;51.084;16.958;2023-05-09T03:13:19;101318.07;;;4.63;100.00
54600;BME280;40500;51.084;16.958;2023-05-09T03:15:50;101316.29;;;4.61;100.00
54600;BME280;40500;51.084;16.958;2023-05-09T03:18:20;101312.13;;;4.61;100.00
54600;BME280;40500;51.084;16.958;2023-05-09T03:20:50;101313.69;;;4.61;100.00
54600;BME280;40500;51.084;16.958;2023-05-09T03:23:21;101308.98;;;4.60;100.00
54600;BME280;40500;51.084;16.958;2023-05-09T03:25:51;101310.02;;;4.60;100.00
54600;BME280;40500;51.084;16.958;2023-05-09T03:28:22;101307.39;;;4.59;100.00
54600;BME280;40500;51.084;16.958;2023-05-09T03:30:53;101310.57;;;4.61;100.00
54600;BME280;40500;51.084;16.958;2023-05-09T03:33:25;101307.48;;;4.63;100.00
54600;BME280;40500;51.084;16.958;2023-05-09T03:35:56;101305.96;;;4.65;100.00
54600;BME280;40500;51.084;16.958;2023-05-09T03:38:26;101305.18;;;4.68;100.00
54600;BME280;40500;51.084;16.958;2023-05-09T03:40:57;101304.07;;;4.72;100.00
54600;BME280;40500;51.084;16.958;2023-05-09T03:43:28;101301.02;;;4.76;100.00
54600;BME280;40500;51.084;16.958;2023-05-09T03:45:58;101296.77;;;4.80;100.00
54600;BME280;40500;51.084;16.958;2023-05-09T03:48:28;101300.35;;;4.85;100.00
54600;BME280;40500;51.084;16.958;2023-05-09T03:50:59;101300.81;;;4.91;100.00
54600;BME280;40500;51.084;16.958;2023-05-09T03:53:31;101300.07;;;4.96;100.00
54600;BME280;40500;51.084;16.958;2023-05-09T03:56:02;101302.98;;;5.01;100.00
54600;BME280;40500;51.084;16.958;2023-05-09T03:58:34;101303.60;;;5.07;100.00
54600;BME280;40500;51.084;16.958;2023-05-09T04:01:05;101308.23;;;5.13;100.00
54600;BME280;40500;51.084;16.958;2023-05-09T04:03:36;101306.63;;;5.19;100.00
54600;BME280;40500;51.084;16.958;2023-05-09T04:06:07;101302.05;;;5.24;100.00
54600;BME280;40500;51.084;16.958;2023-05-09T04:08:40;101300.95;;;5.31;100.00
54600;BME280;40500;51.084;16.958;2023-05-09T04:11:11;101303.52;;;5.37;100.00
54600;BME280;40500;51.084;16.958;2023-05-09T04:13:43;101304.48;;;5.43;100.00
54600;BME280;40500;51.084;16.958;2023-05-09T04:16:28;101306.17;;;5.48;100.00
54600;BME280;40500;51.084;16.958;2023-05-09T04:19:00;101309.24;;;5.55;100.00
54600;BME280;40500;51.084;16.958;2023-05-09T04:21:30;101305.02;;;5.61;100.00
54600;BME280;40500;51.084;16.958;2023-05-09T04:24:02;101305.66;;;5.68;100.00
54600;BME280;40500;51.084;16.958;2023-05-09T04:26:47;101303.89;;;5.76;100.00
54600;BME280;40500;51.084;16.958;2023-05-09T04:29:20;101304.70;;;5.82;100.00
54600;BME280;40500;51.084;16.958;2023-05-09T04:31:54;101309.02;;;5.89;100.00
54600;BME280;40500;51.084;16.958;2023-05-09T04:34:26;101305.85;;;5.96;100.00
54600;BME280;40500;51.084;16.958;2023-05-09T04:36:59;101311.34;;;6.02;100.00
54600;BME280;40500;51.084;16.958;2023-05-09T04:39:30;101306.95;;;6.08;100.00
54600;BME280;40500;51.084;16.958;2023-05-09T04:42:06;101306.02;;;6.15;100.00
54600;BME280;40500;51.084;16.958;2023-05-09T04:44:36;101310.45;;;6.21;100.00
54600;BME280;40500;51.084;16.958;2023-05-09T04:47:07;101313.38;;;6.28;100.00
54600;BME280;40500;51.084;16.958;2023-05-09T04:49:37;101310.34;;;6.35;100.00
54600;BME280;40500;51.084;16.958;2023-05-09T04:52:07;101311.16;;;6.43;100.00
54600;BME280;40500;51.084;16.958;2023-05-09T04:54:38;101304.34;;;6.51;100.00
54600;BME280;40500;51.084;16.958;2023-05-09T04:57:09;101307.93;;;6.60;100.00
54600;BME280;40500;51.084;16.958;2023-05-09T04:59:51;101301.52;;;6.73;100.00
54600;BME280;40500;51.084;16.958;2023-05-09T05:02:22;101294.96;;;7.18;100.00
54600;BME280;40500;51.084;16.958;2023-05-09T05:04:54;101299.43;;;7.58;100.00
54600;BME280;40500;51.084;16.958;2023-05-09T05:07:41;101299.35;;;7.67;100.00
54600;BME280;40500;51.084;16.958;2023-05-09T05:10:13;101299.59;;;7.73;100.00
54600;BME280;40500;51.084;16.958;2023-05-09T05:12:46;101302.77;;;7.77;100.00
54600;BME280;40500;51.084;16.958;2023-05-09T05:15:17;101301.08;;;7.82;100.00
54600;BME280;40500;51.084;16.958;2023-05-09T05:17:48;101293.28;;;7.88;100.00
54600;BME280;40500;51.084;16.958;2023-05-09T05:20:21;101292.30;;;7.95;100.00
54600;BME280;40500;51.084;16.958;2023-05-09T05:22:51;101293.95;;;8.03;100.00
54600;BME280;40500;51.084;16.958;2023-05-09T05:25:24;101292.78;;;8.09;100.00
54600;BME280;40500;51.084;16.958;2023-05-09T05:27:54;101295.95;;;8.12;100.00
54600;BME280;40500;51.084;16.958;2023-05-09T05:30:25;101302.27;;;8.17;100.00
54600;BME280;40500;51.084;16.958;2023-05-09T05:32:55;101297.95;;;8.22;100.00
54600;BME280;40500;51.084;16.958;2023-05-09T05:35:27;101295.91;;;8.29;100.00
54600;BME280;40500;51.084;16.958;2023-05-09T05:37:58;101294.04;;;8.36;100.00
54600;BME280;40500;51.084;16.958;2023-05-09T05:40:29;101297.13;;;8.48;100.00
54600;BME280;40500;51.084;16.958;2023-05-09T05:43:02;101292.66;;;8.59;100.00
54600;BME280;40500;51.084;16.958;2023-05-09T05:45:34;101290.54;;;8.82;100.00
54600;BME280;40500;51.084;16.958;2023-05-09T05:48:07;101289.24;;;9.03;100.00
54600;BME280;40500;51.084;16.958;2023-05-09T05:50:37;101281.73;;;9.03;100.00
54600;BME280;40500;51.084;16.958;2023-05-09T05:53:08;101278.42;;;9.04;100.00
54600;BME280;40500;51.084;16.958;2023-05-09T05:55:38;101280.69;;;9.07;100.00
54600;BME280;40500;51.084;16.958;2023-05-09T05:58:09;101275.84;;;9.13;100.00
54600;BME280;40500;51.084;16.958;2023-05-09T06:00:42;101278.66;;;9.18;100.00
54600;BME280;40500;51.084;16.958;2023-05-09T06:03:13;101269.41;;;9.26;100.00
54600;BME280;40500;51.084;16.958;2023-05-09T06:05:55;101270.51;;;9.39;100.00
54600;BME280;40500;51.084;16.958;2023-05-09T06:08:25;101269.83;;;9.51;100.00
54600;BME280;40500;51.084;16.958;2023-05-09T06:10:56;101269.86;;;9.58;100.00
54600;BME280;40500;51.084;16.958;2023-05-09T06:13:26;101265.50;;;9.66;100.00
54600;BME280;40500;51.084;16.958;2023-05-09T06:16:01;101258.52;;;9.74;100.00
54600;BME280;40500;51.084;16.958;2023-05-09T06:18:50;101258.88;;;9.79;100.00
54600;BME280;40500;51.084;16.958;2023-05-09T06:21:24;101257.48;;;9.88;100.00
54600;BME280;40500;51.084;16.958;2023-05-09T06:23:54;101256.61;;;9.97;100.00
54600;BME280;40500;51.084;16.958;2023-05-09T06:26:40;101261.68;;;10.05;100.00
54600;BME280;40500;51.084;16.958;2023-05-09T06:29:10;101263.44;;;10.15;100.00
54600;BME280;40500;51.084;16.958;2023-05-09T06:31:44;101259.58;;;10.38;100.00
54600;BME280;40500;51.084;16.958;2023-05-09T06:34:15;101258.34;;;10.54;100.00
54600;BME280;40500;51.084;16.958;2023-05-09T06:36:45;101258.17;;;10.53;100.00
54600;BME280;40500;51.084;16.958;2023-05-09T06:39:16;101255.55;;;10.52;100.00
54600;BME280;40500;51.084;16.958;2023-05-09T06:41:47;101245.21;;;10.53;100.00
54600;BME280;40500;51.084;16.958;2023-05-09T06:44:25;101243.98;;;10.60;100.00
54600;BME280;40500;51.084;16.958;2023-05-09T06:46:56;101244.86;;;10.62;100.00
54600;BME280;40500;51.084;16.958;2023-05-09T06:49:26;101241.69;;;10.64;100.00
54600;BME280;40500;51.084;16.958;2023-05-09T06:51:56;101244.11;;;10.69;100.00
54600;BME280;40500;51.084;16.958;2023-05-09T06:54:27;101238.86;;;10.71;100.00
54600;BME280;40500;51.084;16.958;2023-05-09T06:56:57;101236.23;;;10.75;100.00
54600;BME280;40500;51.084;16.958;2023-05-09T06:59:28;101233.75;;;10.81;100.00
54600;BME280;40500;51.084;16.958;2023-05-09T07:01:58;101226.90;;;10.87;100.00
54600;BME280;40500;51.084;16.958;2023-05-09T07:04:29;101228.09;;;10.95;100.00
54600;BME280;40500;51.084;16.958;2023-05-09T07:06:59;101225.76;;;11.06;100.00
54600;BME280;40500;51.084;16.958;2023-05-09T07:09:30;101233.41;;;11.19;100.00
54600;BME280;40500;51.084;16.958;2023-05-09T07:12:01;101234.42;;;11.27;100.00
54600;BME280;40500;51.084;16.958;2023-05-09T07:14:31;101232.30;;;11.31;100.00
54600;BME280;40500;51.084;16.958;2023-05-09T07:17:02;101229.48;;;11.33;100.00
54600;BME280;40500;51.084;16.958;2023-05-09T07:19:49;101224.35;;;11.40;100.00
54600;BME280;40500;51.084;16.958;2023-05-09T07:22:20;101219.38;;;11.48;100.00
54600;BME280;40500;51.084;16.958;2023-05-09T07:24:50;101222.67;;;11.57;100.00
54600;BME280;40500;51.084;16.958;2023-05-09T07:27:20;101215.60;;;11.62;100.00
54600;BME280;40500;51.084;16.958;2023-05-09T07:29:51;101214.86;;;11.69;100.00
54600;BME280;40500;51.084;16.958;2023-05-09T07:32:21;101203.74;;;11.76;100.00
54600;BME280;40500;51.084;16.958;2023-05-09T07:34:52;101197.75;;;11.81;100.00
54600;BME280;40500;51.084;16.958;2023-05-09T07:37:22;101189.98;;;11.86;100.00
54600;BME280;40500;51.084;16.958;2023-05-09T07:39:53;101191.19;;;11.93;100.00
54600;BME280;40500;51.084;16.958;2023-05-09T07:42:24;101192.91;;;11.95;100.00
54600;BME280;40500;51.084;16.958;2023-05-09T07:44:54;101191.35;;;11.94;100.00
54600;BME280;40500;51.084;16.958;2023-05-09T07:47:25;101183.11;;;11.93;100.00
54600;BME280;40500;51.084;16.958;2023-05-09T07:49:55;101181.12;;;12.01;100.00
54600;BME280;40500;51.084;16.958;2023-05-09T07:52:25;101171.52;;;12.11;100.00
54600;BME280;40500;51.084;16.958;2023-05-09T07:54:56;101170.08;;;12.16;100.00
54600;BME280;40500;51.084;16.958;2023-05-09T07:57:26;101168.65;;;12.18;100.00
54600;BME280;40500;51.084;16.958;2023-05-09T07:59:57;101166.67;;;12.23;100.00
54600;BME280;40500;51.084;16.958;2023-05-09T08:02:27;101170.46;;;12.30;100.00
54600;BME280;40500;51.084;16.958;2023-05-09T08:04:58;101162.89;;;12.31;100.00
54600;BME280;40500;51.084;16.958;2023-05-09T08:07:29;101160.41;;;12.34;100.00
54600;BME280;40500;51.084;16.958;2023-05-09T08:10:00;101154.77;;;12.37;100.00
54600;BME280;40500;51.084;16.958;2023-05-09T08:12:30;101153.99;;;12.42;100.00
54600;BME280;40500;51.084;16.958;2023-05-09T08:15:00;101156.91;;;12.47;100.00
54600;BME280;40500;51.084;16.958;2023-05-09T08:17:31;101144.75;;;12.51;100.00
54600;BME280;40500;51.084;16.958;2023-05-09T08:20:02;101145.89;;;12.57;100.00
54600;BME280;40500;51.084;16.958;2023-05-09T08:22:33;101136.32;;;12.65;100.00
54600;BME280;40500;51.084;16.958;2023-05-09T08:25:04;101131.17;;;12.69;100.00
54600;BME280;40500;51.084;16.958;2023-05-09T08:27:35;101132.19;;;12.73;100.00
54600;BME280;40500;51.084;16.958;2023-05-09T08:30:07;101134.91;;;12.79;100.00
54600;BME280;40500;51.084;16.958;2023-05-09T08:32:38;101137.34;;;12.81;100.00
54600;BME280;40500;51.084;16.958;2023-05-09T08:35:09;101131.54;;;12.81;100.00
54600;BME280;40500;51.084;16.958;2023-05-09T08:37:40;101126.08;;;12.82;100.00
54600;BME280;40500;51.084;16.958;2023-05-09T08:40:12;101121.11;;;12.86;100.00
54600;BME280;40500;51.084;16.958;2023-05-09T08:42:44;101123.31;;;12.92;100.00
54600;BME280;40500;51.084;16.958;2023-05-09T08:45:16;101120.44;;;12.96;100.00
54600;BME280;40500;51.084;16.958;2023-05-09T08:47:50;101114.77;;;12.99;100.00
54600;BME280;40500;51.084;16.958;2023-05-09T08:50:22;101115.58;;;13.03;100.00
54600;BME280;40500;51.084;16.958;2023-05-09T08:52:53;101103.53;;;13.10;100.00
54600;BME280;40500;51.084;16.958;2023-05-09T08:55:24;101097.66;;;13.15;100.00
54600;BME280;40500;51.084;16.958;2023-05-09T08:57:55;101095.97;;;13.21;100.00
54600;BME280;40500;51.084;16.958;2023-05-09T09:00:27;101090.23;;;13.29;100.00
54600;BME280;40500;51.084;16.958;2023-05-09T09:03:01;101081.54;;;13.35;100.00
54600;BME280;40500;51.084;16.958;2023-05-09T09:05:34;101088.98;;;13.42;100.00
54600;BME280;40500;51.084;16.958;2023-05-09T09:08:10;101084.02;;;13.45;100.00
54600;BME280;40500;51.084;16.958;2023-05-09T09:10:41;101084.17;;;13.46;100.00
54600;BME280;40500;51.084;16.958;2023-05-09T09:13:17;101079.38;;;13.49;100.00
54600;BME280;40500;51.084;16.958;2023-05-09T09:15:50;101074.38;;;13.53;100.00
54600;BME280;40500;51.084;16.958;2023-05-09T09:18:26;101074.64;;;13.58;100.00
54600;BME280;40500;51.084;16.958;2023-05-09T09:21:00;101074.47;;;13.58;100.00
54600;BME280;40500;51.084;16.958;2023-05-09T09:23:35;101068.80;;;13.60;100.00
54600;BME280;40500;51.084;16.958;2023-05-09T09:26:06;101069.20;;;13.68;100.00
54600;BME280;40500;51.084;16.958;2023-05-09T09:28:37;101065.61;;;13.71;100.00
54600;BME280;40500;51.084;16.958;2023-05-09T09:31:21;101060.15;;;13.71;100.00
54600;BME280;40500;51.084;16.958;2023-05-09T09:33:52;101063.01;;;13.78;100.00
54600;BME280;40500;51.084;16.958;2023-05-09T09:36:28;101055.70;;;13.82;100.00
54600;BME280;40500;51.084;16.958;2023-05-09T09:39:01;101060.00;;;13.88;100.00
54600;BME280;40500;51.084;16.958;2023-05-09T09:41:34;101063.54;;;13.98;100.00
54600;BME280;40500;51.084;16.958;2023-05-09T09:44:08;101059.44;;;14.08;100.00
54600;BME280;40500;51.084;16.958;2023-05-09T09:46:43;101059.98;;;14.16;100.00
54600;BME280;40500;51.084;16.958;2023-05-09T09:49:15;101062.83;;;14.23;100.00
54600;BME280;40500;51.084;16.958;2023-05-09T09:51:50;101060.22;;;14.31;100.00
54600;BME280;40500;51.084;16.958;2023-05-09T09:54:21;101052.30;;;14.38;100.00
54600;BME280;40500;51.084;16.958;2023-05-09T09:56:53;101043.95;;;14.50;100.00
54600;BME280;40500;51.084;16.958;2023-05-09T09:59:25;101052.17;;;14.62;100.00
54600;BME280;40500;51.084;16.958;2023-05-09T10:01:58;101046.18;;;14.62;100.00
54600;BME280;40500;51.084;16.958;2023-05-09T10:04:32;101043.38;;;14.61;100.00
54600;BME280;40500;51.084;16.958;2023-05-09T10:07:04;101045.80;;;14.63;100.00
54600;BME280;40500;51.084;16.958;2023-05-09T10:09:35;101041.03;;;14.64;100.00
54600;BME280;40500;51.084;16.958;2023-05-09T10:12:08;101034.64;;;14.67;100.00
54600;BME280;40500;51.084;16.958;2023-05-09T10:14:38;101027.67;;;14.71;100.00
54600;BME280;40500;51.084;16.958;2023-05-09T10:17:13;101023.61;;;14.78;100.00
54600;BME280;40500;51.084;16.958;2023-05-09T10:19:46;101020.77;;;14.87;100.00
54600;BME280;40500;51.084;16.958;2023-05-09T10:22:17;101016.17;;;14.94;99.44
54600;BME280;40500;51.084;16.958;2023-05-09T10:24:50;101014.77;;;14.94;98.27
54600;BME280;40500;51.084;16.958;2023-05-09T10:27:22;101011.80;;;15.00;99.99
54600;BME280;40500;51.084;16.958;2023-05-09T10:30:01;101015.05;;;15.11;100.00
54600;BME280;40500;51.084;16.958;2023-05-09T10:32:42;101002.08;;;15.15;98.47
54600;BME280;40500;51.084;16.958;2023-05-09T10:35:18;101001.23;;;15.20;99.77
54600;BME280;40500;51.084;16.958;2023-05-09T10:37:49;100990.11;;;15.28;99.98
54600;BME280;40500;51.084;16.958;2023-05-09T10:40:22;100986.45;;;15.33;99.19
54600;BME280;40500;51.084;16.958;2023-05-09T10:42:53;100975.12;;;15.41;98.80
54600;BME280;40500;51.084;16.958;2023-05-09T10:45:23;100979.09;;;15.51;97.09
54600;BME280;40500;51.084;16.958;2023-05-09T10:47:55;100968.92;;;15.61;95.72
54600;BME280;40500;51.084;16.958;2023-05-09T10:50:26;100972.48;;;15.67;96.62
54600;BME280;40500;51.084;16.958;2023-05-09T10:53:09;100967.28;;;15.77;95.63
54600;BME280;40500;51.084;16.958;2023-05-09T10:55:51;100961.73;;;15.86;96.19
54600;BME280;40500;51.084;16.958;2023-05-09T10:58:24;100961.64;;;15.95;94.62
54600;BME280;40500;51.084;16.958;2023-05-09T11:00:57;100954.67;;;16.03;95.58
54600;BME280;40500;51.084;16.958;2023-05-09T11:03:28;100950.05;;;16.10;94.73
54600;BME280;40500;51.084;16.958;2023-05-09T11:06:45;100953.23;;;16.22;94.34
54600;BME280;40500;51.084;16.958;2023-05-09T11:09:25;100949.39;;;16.27;92.10
54600;BME280;40500;51.084;16.958;2023-05-09T11:11:58;100945.10;;;16.28;92.60
54600;BME280;40500;51.084;16.958;2023-05-09T11:14:36;100943.59;;;16.37;91.91
54600;BME280;40500;51.084;16.958;2023-05-09T11:17:08;100934.64;;;16.40;86.44
54600;BME280;40500;51.084;16.958;2023-05-09T11:19:57;100929.30;;;16.42;85.97
54600;BME280;40500;51.084;16.958;2023-05-09T11:22:29;100934.30;;;16.51;85.82
54600;BME280;40500;51.084;16.958;2023-05-09T11:25:04;100929.34;;;16.57;84.71
54600;BME280;40500;51.084;16.958;2023-05-09T11:27:40;100930.08;;;16.62;83.01
54600;BME280;40500;51.084;16.958;2023-05-09T11:30:13;100923.83;;;16.64;82.30
54600;BME280;40500;51.084;16.958;2023-05-09T11:32:49;100912.23;;;16.67;80.15
54600;BME280;40500;51.084;16.958;2023-05-09T11:35:21;100911.98;;;16.75;81.22
54600;BME280;40500;51.084;16.958;2023-05-09T11:37:58;100907.86;;;16.82;78.08
54600;BME280;40500;51.084;16.958;2023-05-09T11:40:29;100902.48;;;16.84;78.11
54600;BME280;40500;51.084;16.958;2023-05-09T11:43:00;100900.25;;;16.92;78.47
54600;BME280;40500;51.084;16.958;2023-05-09T11:45:31;100893.40;;;17.02;79.41
54600;BME280;40500;51.084;16.958;2023-05-09T11:48:08;100891.14;;;17.11;78.26
54600;BME280;40500;51.084;16.958;2023-05-09T11:50:39;100886.20;;;17.15;77.57
54600;BME280;40500;51.084;16.958;2023-05-09T11:53:12;100883.58;;;17.24;78.84
54600;BME280;40500;51.084;16.958;2023-05-09T11:55:42;100878.70;;;17.37;79.89
54600;BME280;40500;51.084;16.958;2023-05-09T11:58:13;100870.86;;;17.48;76.02
54600;BME280;40500;51.084;16.958;2023-05-09T12:00:45;100878.59;;;17.54;76.01
54600;BME280;40500;51.084;16.958;2023-05-09T12:03:16;100877.45;;;17.66;76.18
54600;BME280;40500;51.084;16.958;2023-05-09T12:05:49;100862.04;;;17.80;76.75
54600;BME280;40500;51.084;16.958;2023-05-09T12:08:20;100863.13;;;17.98;76.19
54600;BME280;40500;51.084;16.958;2023-05-09T12:10:51;100858.45;;;18.13;75.80
54600;BME280;40500;51.084;16.958;2023-05-09T12:13:21;100850.23;;;18.33;74.47
54600;BME280;40500;51.084;16.958;2023-05-09T12:15:52;100847.99;;;18.48;72.49
54600;BME280;40500;51.084;16.958;2023-05-09T12:18:29;100841.91;;;18.66;71.93
54600;BME280;40500;51.084;16.958;2023-05-09T12:20:59;100843.33;;;18.88;70.52
54600;BME280;40500;51.084;16.958;2023-05-09T12:23:34;100836.21;;;19.12;71.52
54600;BME280;40500;51.084;16.958;2023-05-09T12:26:05;100836.27;;;19.54;71.61
54600;BME280;40500;51.084;16.958;2023-05-09T12:28:36;100821.63;;;19.91;71.24
54600;BME280;40500;51.084;16.958;2023-05-09T12:31:07;100825.17;;;20.27;68.80
54600;BME280;40500;51.084;16.958;2023-05-09T12:33:38;100828.70;;;20.57;66.72
54600;BME280;40500;51.084;16.958;2023-05-09T12:36:11;100826.21;;;20.81;64.69
54600;BME280;40500;51.084;16.958;2023-05-09T12:38:52;100826.20;;;21.19;64.93
54600;BME280;40500;51.084;16.958;2023-05-09T12:41:23;100813.23;;;21.68;64.38
54600;BME280;40500;51.084;16.958;2023-05-09T12:43:56;100819.09;;;22.16;61.44
54600;BME280;40500;51.084;16.958;2023-05-09T12:46:27;100812.19;;;22.43;57.87
54600;BME280;40500;51.084;16.958;2023-05-09T12:48:57;100796.91;;;22.74;59.55
54600;BME280;40500;51.084;16.958;2023-05-09T12:51:28;100790.72;;;23.23;57.95
54600;BME280;40500;51.084;16.958;2023-05-09T12:54:03;100792.52;;;23.68;57.18
54600;BME280;40500;51.084;16.958;2023-05-09T12:56:34;100783.37;;;24.34;56.83
54600;BME280;40500;51.084;16.958;2023-05-09T12:59:10;100778.67;;;24.96;53.16
54600;BME280;40500;51.084;16.958;2023-05-09T13:01:43;100778.48;;;25.56;50.97
54600;BME280;40500;51.084;16.958;2023-05-09T13:04:14;100774.30;;;25.91;45.63
54600;BME280;40500;51.084;16.958;2023-05-09T13:06:49;100770.52;;;26.23;45.89